Terminal Aerodrome Forecast
Issued by NWS Pendleton, OR

Home | Current Version | Previous Version | Text Only | Print | Product List | Glossary On
Versions: 1 2 3 4 5 6 7 8 9 10 11 12 13 14 15 16 17 18 19 20 21 22 23 24 25 26 27
000
FTUS46 KPDT 250100 AAB
TAFPDT
TAF AMD
KPDT 250105Z 2501/2524 29008G15KT P6SM VCSH SCT050 BKN120
      TEMPO 2501/2504 21007KT -SHRA BKN050CB BKN070
     FM250600 25008G15KT P6SM VCSH SCT050 BKN070
     FM250800 25010KT P6SM BKN070 OVC100
     FM251800 28010KT P6SM VCSH BKN050 BKN100=

USA.gov is the U.S. government's official web portal to all federal, state and local government web resources and services.